ADDS METAR Data INFO
IDs: Format: Raw Decoded Include TAF

Data at: 0400 UTC 19 Jul 2018

KAAO 190354Z AUTO 00000KT 10SM FEW039 28/23 A2992 RMK AO2 SLP114 T02780228
KAAO 190254Z AUTO 18005KT 10SM BKN037 28/23 A2990 RMK AO2 SLP110 T02830233 53003
KAAO 190154Z AUTO 20007KT 10SM BKN041 BKN055 30/23 A2989 RMK AO2 SLP106 T03000233
KAAO 190054Z AUTO 05006KT 10SM BKN049 BKN055 31/23 A2989 RMK AO2 SLP106 T03110233
KAAO 182354Z AUTO 04005KT 10SM BKN045 BKN055 31/23 A2990 RMK AO2 SLP108 T03110233 10333 20306 56008
KAAO 182254Z AUTO 20003KT 10SM BKN055 32/22 A2990 RMK AO2 SLP111 T03220222
KAAO 182154Z AUTO 00000KT 10SM BKN047 32/22 A2991 RMK AO2 SLP113 T03220217
KAAO 182054Z AUTO 10003KT 10SM SCT046 32/22 A2992 RMK AO2 SLP115 T03220217 56021
KAAO 181954Z AUTO 08004KT 10SM FEW039 32/23 A2993 RMK AO2 SLP119 T03220228
KAAO 181854Z AUTO 00000KT 10SM BKN033 31/23 A2996 RMK AO2 SLP132 T03060228
KAAO 181754Z AUTO VRB03KT 10SM SCT034 BKN110 31/22 A2998 RMK AO2 SLP138 6//// T03060222 10311 20222 58003
KAAO 181654Z AUTO 10SM CLR 31/23 A3000 RMK AO2 SLP143 T03060228 PNO $
KAAO 181554Z AUTO 00000KT 10SM CLR 28/23 A2999 RMK AO2 SLP140 T02830228 PNO $
KAAO 181454Z AUTO 00000KT 10SM CLR 27/23 A2999 RMK AO2 SLP142 6//// T02670228 51002 PNO $
KAAO 181354Z AUTO 04003KT 10SM CLR 25/23 A2999 RMK AO2 SLP141 T02500228
KAAO 181254Z AUTO 15003KT 10SM BKN080 23/22 A2999 RMK AO2 SLP143 T02330222
KAAO 181154Z AUTO 13003KT 10SM SCT080 BKN120 22/22 A2998 RMK AO2 SLP140 7//// T02220222 10239 20222 55006
KAAO 181054Z AUTO 16005KT 10SM OVC085 22/22 A2998 RMK AO2 SLP139 T02220217
KAAO 180954Z AUTO 17003KT 10SM BKN090 22/22 A2998 RMK AO2 SLP139 T02220217
KAAO 180854Z AUTO 21004KT 10SM BKN090 23/22 A3000 RMK AO2 SLP146 T02280217 55006
KAAO 180821Z AUTO 18008G14KT 10SM SCT008 BKN100 23/22 A3001 RMK AO2 T02280222
KAAO 180754Z AUTO 15005KT 10SM SCT100 23/22 A3000 RMK AO2 SLP145 T02280222
KAAO 180654Z AUTO 18007KT 10SM CLR 24/22 A3003 RMK AO2 SLP154 T02390217
KAAO 180554Z AUTO 14005KT 10SM CLR 23/22 A3002 RMK AO2 LTG DSNT S AND SW SLP153 T02280222 10294 20228 403000217 50007
KAAO 180454Z AUTO 10005KT 10SM CLR 24/22 A3003 RMK AO2 SLP156 T02390222
KAAO 180354Z AUTO 12005KT 10SM CLR 24/23 A3003 RMK AO2 SLP157 T02440233
KAAO 180254Z AUTO 09005KT 10SM CLR 24/23 A3000 RMK AO2 SLP147 T02440233 53001
KAAO 180154Z AUTO 00000KT 10SM CLR 26/23 A2999 RMK AO2 SLP145 T02610233
KAAO 180054Z AUTO 07004KT 10SM CLR 28/23 A2999 RMK AO2 SLP142 T02830228
KAAO 172354Z AUTO 06006KT 10SM CLR 29/23 A3000 RMK AO2 SLP144 60002 T02940233 10300 20261 58009
KAAO 172254Z AUTO 08006KT 10SM SCT029 30/23 A3001 RMK AO2 SLP148 T03000233
KAAO 172154Z AUTO 08006KT 10SM SCT110 29/23 A3002 RMK AO2 SLP151 T02940233
KAAO 172054Z AUTO 10003KT 10SM OVC095 28/24 A3003 RMK AO2 RAE04B30E41 SLP154 P0000 60002 T02830239 53002
KAAO 171954Z AUTO 14005KT 6SM +RA FEW070 OVC100 27/23 A3002 RMK AO2 RAB46 SLP151 P0002 T02720233
KAAO 171854Z AUTO 14011KT 10SM CLR 28/22 A3000 RMK AO2 SLP146 T02780222
KAAO 171754Z AUTO 12007KT 10SM CLR 26/22 A3002 RMK AO2 SLP152 6//// T02610222 10261 20217 58031
KAAO 171654Z AUTO 12008KT 10SM CLR 23/23 A3005 RMK AO2 RAE00 SLP162 P0000 T02330228